createdAt,value
2022-11-22T00:00:34.743Z,97839.88
2022-11-22T00:03:01.593Z,97832.66
2022-11-22T00:05:28.465Z,97829.16
2022-11-22T00:07:55.406Z,97825.34
2022-11-22T00:10:22.586Z,97828.00
2022-11-22T00:12:49.885Z,97816.69
2022-11-22T00:15:16.981Z,97812.72
2022-11-22T00:17:45.128Z,97796.53
2022-11-22T00:20:11.927Z,97794.69
2022-11-22T00:22:44.189Z,97790.34
2022-11-22T00:25:13.032Z,97781.38
2022-11-22T00:27:40.242Z,97778.00
2022-11-22T00:30:09.138Z,97769.28
2022-11-22T00:32:36.737Z,97772.09
2022-11-22T00:35:06.178Z,97784.78
2022-11-22T00:37:33.115Z,97791.53
2022-11-22T00:39:59.945Z,97787.84
2022-11-22T00:42:26.952Z,97777.66
2022-11-22T00:44:53.843Z,97776.72
2022-11-22T00:47:20.780Z,97780.56
2022-11-22T00:49:47.688Z,97791.88
2022-11-22T00:52:16.066Z,97795.88
2022-11-22T00:54:43.090Z,97794.47
2022-11-22T00:57:09.842Z,97799.00
2022-11-22T00:59:36.836Z,97801.94
2022-11-22T01:02:03.621Z,97819.09
2022-11-22T01:04:30.528Z,97824.69
2022-11-22T01:06:57.291Z,97828.16
2022-11-22T01:09:25.775Z,97831.66
2022-11-22T01:11:52.871Z,97834.13
2022-11-22T01:14:20.216Z,97842.50
2022-11-22T01:16:48.061Z,97848.81
2022-11-22T01:19:15.644Z,97848.56
2022-11-22T01:21:42.454Z,97853.94
2022-11-22T01:24:09.934Z,97857.66
2022-11-22T01:26:38.254Z,97850.44
2022-11-22T01:29:05.493Z,97850.91
2022-11-22T01:31:32.845Z,97858.94
2022-11-22T01:33:59.827Z,97856.84
2022-11-22T01:36:27.223Z,97854.28
2022-11-22T01:38:54.508Z,97845.91
2022-11-22T01:41:22.347Z,97839.72
2022-11-22T01:43:50.889Z,97853.94
2022-11-22T01:46:32.680Z,97847.53
2022-11-22T01:49:11.205Z,97849.72
2022-11-22T01:51:42.966Z,97852.66
2022-11-22T01:54:15.802Z,97856.75
2022-11-22T01:56:47.989Z,97856.63
2022-11-22T01:59:21.178Z,97855.91
2022-11-22T02:01:48.900Z,97863.50
2022-11-22T02:04:19.333Z,97867.34
2022-11-22T02:06:56.919Z,97869.00
2022-11-22T02:09:23.933Z,97856.97
2022-11-22T02:11:55.941Z,97864.66
2022-11-22T02:14:27.327Z,97860.13
2022-11-22T02:16:54.691Z,97859.66
2022-11-22T02:19:38.457Z,97867.81
2022-11-22T02:22:24.965Z,97863.59
2022-11-22T02:24:57.523Z,97874.34
2022-11-22T02:27:25.813Z,97873.16
2022-11-22T02:29:52.663Z,97873.97
2022-11-22T02:32:19.878Z,97873.16
2022-11-22T02:34:50.141Z,97872.34
2022-11-22T02:37:24.862Z,97870.03
2022-11-22T02:39:58.986Z,97881.25
2022-11-22T02:42:31.178Z,97875.38
2022-11-22T02:44:58.777Z,97877.84
2022-11-22T02:47:26.070Z,97880.06
2022-11-22T02:49:53.573Z,97887.06
2022-11-22T02:52:20.658Z,97884.97
2022-11-22T02:54:47.497Z,97881.56
2022-11-22T02:57:14.497Z,97880.66
2022-11-22T02:59:42.687Z,97882.28
2022-11-22T03:02:09.586Z,97881.47
2022-11-22T03:04:36.666Z,97884.59
2022-11-22T03:07:03.634Z,97885.31
2022-11-22T03:09:31.458Z,97875.88
2022-11-22T03:11:58.732Z,97880.78
2022-11-22T03:14:25.980Z,97889.28
2022-11-22T03:16:54.403Z,97891.97
2022-11-22T03:19:21.412Z,97886.47
2022-11-22T03:21:48.764Z,97894.50
2022-11-22T03:24:16.479Z,97890.91
2022-11-22T03:26:47.443Z,97892.06
2022-11-22T03:29:14.733Z,97888.00
2022-11-22T03:31:41.608Z,97896.50
2022-11-22T03:34:11.637Z,97901.88
2022-11-22T03:36:38.725Z,97893.59
2022-11-22T03:39:05.614Z,97894.97
2022-11-22T03:41:32.389Z,97897.66
2022-11-22T03:43:59.471Z,97905.47
2022-11-22T03:46:26.885Z,97913.44
2022-11-22T03:48:53.858Z,97909.91
2022-11-22T03:51:22.755Z,97923.09
2022-11-22T03:53:49.542Z,97936.75
2022-11-22T03:56:16.400Z,97939.78
2022-11-22T03:58:43.485Z,97939.78
2022-11-22T04:01:16.309Z,97938.16
2022-11-22T04:03:44.297Z,97931.38
2022-11-22T04:06:11.355Z,97936.50
2022-11-22T04:08:40.024Z,97941.41
2022-11-22T04:11:06.875Z,97942.00
2022-11-22T04:13:33.918Z,97934.78
2022-11-22T04:16:00.789Z,97933.72
2022-11-22T04:18:27.910Z,97934.56
2022-11-22T04:20:54.718Z,97948.44
2022-11-22T04:23:26.121Z,97944.47
2022-11-22T04:25:56.773Z,97944.00
2022-11-22T04:29:08.118Z,97948.44
2022-11-22T04:31:13.081Z,97945.28
2022-11-22T04:33:39.947Z,97951.13
2022-11-22T04:36:13.021Z,97948.78
2022-11-22T04:38:40.197Z,97947.25
2022-11-22T04:41:08.378Z,97944.69
2022-11-22T04:43:35.269Z,97950.44
2022-11-22T04:46:02.440Z,97951.13
2022-11-22T04:48:29.707Z,97948.53
2022-11-22T04:50:57.881Z,97949.13
2022-11-22T04:53:25.464Z,97949.25
2022-11-22T04:55:52.491Z,97947.72
2022-11-22T04:58:21.402Z,97943.03
2022-11-22T05:00:48.825Z,97939.09
2022-11-22T05:03:16.442Z,97945.38
2022-11-22T05:05:45.154Z,97942.00
2022-11-22T05:08:13.497Z,97940.09
2022-11-22T05:10:41.064Z,97940.91
2022-11-22T05:13:07.952Z,97935.91
2022-11-22T05:15:36.328Z,97936.59
2022-11-22T05:18:03.094Z,97947.88
2022-11-22T05:20:29.952Z,97950.22
2022-11-22T05:22:56.776Z,97945.81
2022-11-22T05:25:25.713Z,97958.41
2022-11-22T05:27:53.945Z,97966.91
2022-11-22T05:30:22.123Z,97964.22
2022-11-22T05:32:50.355Z,97961.69
2022-11-22T05:35:17.478Z,97955.72
2022-11-22T05:37:44.550Z,97962.72
2022-11-22T05:40:15.632Z,97966.69
2022-11-22T05:42:42.706Z,97960.63
2022-11-22T05:45:10.203Z,97973.59
2022-11-22T05:47:37.307Z,97972.75
2022-11-22T05:50:06.965Z,97968.56
2022-11-22T05:52:34.741Z,97970.22
2022-11-22T05:55:02.001Z,97977.66
2022-11-22T05:57:28.876Z,97981.97
2022-11-22T05:59:55.706Z,97986.41
2022-11-22T06:02:22.832Z,97984.56
2022-11-22T06:04:49.837Z,97977.56
2022-11-22T06:07:18.339Z,97993.91
2022-11-22T06:09:45.372Z,97992.41
2022-11-22T06:12:12.187Z,97995.91
2022-11-22T06:14:43.166Z,98000.91
2022-11-22T06:17:10.585Z,98012.25
2022-11-22T06:19:37.713Z,98016.78
2022-11-22T06:22:04.669Z,98019.44
2022-11-22T06:24:33.204Z,98027.81
2022-11-22T06:27:00.897Z,98030.50
2022-11-22T06:29:29.600Z,98032.72
2022-11-22T06:32:01.924Z,98034.59
2022-11-22T06:34:30.392Z,98035.28
2022-11-22T06:36:57.264Z,98029.75
2022-11-22T06:39:24.070Z,98041.09
2022-11-22T06:41:52.235Z,98050.09
2022-11-22T06:44:19.270Z,98052.75
2022-11-22T06:46:46.217Z,98064.31
2022-11-22T06:49:13.051Z,98061.94
2022-11-22T06:51:40.823Z,98068.59
2022-11-22T06:54:11.657Z,98070.50
2022-11-22T06:56:40.908Z,98069.91
2022-11-22T06:59:10.267Z,98074.91
2022-11-22T07:01:37.740Z,98084.03
2022-11-22T07:04:05.643Z,98093.34
2022-11-22T07:06:35.328Z,98093.13
2022-11-22T07:09:05.954Z,98104.59
2022-11-22T07:11:33.648Z,98112.31
2022-11-22T07:14:07.646Z,98117.22
2022-11-22T07:16:38.907Z,98114.88
2022-11-22T07:19:07.502Z,98123.16
2022-11-22T07:21:35.776Z,98122.06
2022-11-22T07:24:06.025Z,98116.38
2022-11-22T07:26:32.935Z,98102.59
2022-11-22T07:28:59.933Z,98121.59
2022-11-22T07:31:26.881Z,98114.06
2022-11-22T07:33:56.163Z,98112.63
2022-11-22T07:36:23.255Z,98119.78
2022-11-22T07:38:51.243Z,98123.63
2022-11-22T07:41:19.217Z,98132.88
2022-11-22T07:43:46.738Z,98132.97
2022-11-22T07:46:22.537Z,98131.34
2022-11-22T07:48:50.564Z,98139.72
2022-11-22T07:51:19.008Z,98149.22
2022-11-22T07:53:46.984Z,98151.31
2022-11-22T07:56:14.365Z,98155.78
2022-11-22T07:58:41.317Z,98161.91
2022-11-22T08:01:10.954Z,98155.38
2022-11-22T08:03:38.753Z,98159.00
2022-11-22T08:06:09.737Z,98157.13
2022-11-22T08:08:38.656Z,98155.03
2022-11-22T08:11:07.060Z,98158.16
2022-11-22T08:13:35.426Z,98167.59
2022-11-22T08:16:06.428Z,98172.19
2022-11-22T08:18:34.014Z,98169.84
2022-11-22T08:21:06.625Z,98158.19
2022-11-22T08:23:33.950Z,98161.59
2022-11-22T08:26:02.504Z,98159.63
2022-11-22T08:28:29.526Z,98163.00
2022-11-22T08:31:02.580Z,98167.81
2022-11-22T08:33:29.689Z,98162.88
2022-11-22T08:35:56.772Z,98163.03
2022-11-22T08:38:24.312Z,98166.88
2022-11-22T08:40:51.539Z,98163.81
2022-11-22T08:43:20.122Z,98156.00
2022-11-22T08:45:53.126Z,98157.88
2022-11-22T08:48:22.468Z,98161.81
2022-11-22T08:50:51.637Z,98155.28
2022-11-22T08:53:18.628Z,98160.69
2022-11-22T08:55:45.937Z,98155.31
2022-11-22T08:58:13.217Z,98166.75
2022-11-22T09:00:42.020Z,98154.00
2022-11-22T09:03:09.215Z,98151.06
2022-11-22T09:08:24.101Z,98143.97
2022-11-22T09:10:51.297Z,98139.25
2022-11-22T09:13:18.249Z,98137.50
2022-11-22T09:15:46.619Z,98131.97
2022-11-22T09:18:13.476Z,98131.97
2022-11-22T09:20:40.283Z,98127.44
2022-11-22T09:23:07.677Z,98133.34
2022-11-22T09:25:34.545Z,98139.28
2022-11-22T09:28:01.583Z,98147.00
2022-11-22T09:30:28.803Z,98151.94
2022-11-22T09:32:57.165Z,98138.50
2022-11-22T09:35:23.961Z,98137.56
2022-11-22T09:37:51.150Z,98149.91
2022-11-22T09:40:18.030Z,98154.81
2022-11-22T09:43:13.988Z,98149.56
2022-11-22T09:46:14.509Z,98144.50
2022-11-22T09:49:13.190Z,98148.06
2022-11-22T09:51:49.205Z,98160.34
2022-11-22T09:54:26.106Z,98170.41
2022-11-22T09:56:59.133Z,98172.19
2022-11-22T09:59:34.986Z,98167.59
2022-11-22T10:02:18.069Z,98170.88
2022-11-22T10:04:56.916Z,98182.94
2022-11-22T10:07:34.420Z,98191.97
2022-11-22T10:10:08.842Z,98186.75
2022-11-22T10:12:47.419Z,98189.47
2022-11-22T10:15:28.708Z,98185.81
2022-11-22T10:18:01.869Z,98187.81
2022-11-22T10:20:35.605Z,98197.84
2022-11-22T10:23:07.240Z,98198.41
2022-11-22T10:25:40.348Z,98201.00
2022-11-22T10:28:17.091Z,98200.88
2022-11-22T10:30:58.618Z,98199.72
2022-11-22T10:33:39.956Z,98206.50
2022-11-22T10:36:34.838Z,98205.59
2022-11-22T10:39:19.242Z,98202.19
2022-11-22T10:42:12.013Z,98208.38
2022-11-22T10:44:51.148Z,98214.94
2022-11-22T10:47:40.263Z,98214.00
2022-11-22T10:50:20.202Z,98206.84
2022-11-22T10:53:02.725Z,98211.88
2022-11-22T10:55:49.351Z,98217.63
2022-11-22T10:58:32.850Z,98203.34
2022-11-22T11:01:17.490Z,98203.97
2022-11-22T11:03:49.840Z,98205.09
2022-11-22T11:06:43.601Z,98211.41
2022-11-22T11:10:10.373Z,98208.88
2022-11-22T11:12:38.719Z,98198.91
2022-11-22T11:15:23.214Z,98201.50
2022-11-22T11:18:02.640Z,98200.91
2022-11-22T11:20:39.670Z,98198.22
2022-11-22T11:23:16.292Z,98194.69
2022-11-22T11:25:51.963Z,98182.16
2022-11-22T11:28:27.130Z,98173.03
2022-11-22T11:31:06.611Z,98167.03
2022-11-22T11:33:42.252Z,98163.19
2022-11-22T11:36:18.976Z,98162.38
2022-11-22T11:38:57.428Z,98156.09
2022-11-22T11:41:36.308Z,98159.50
2022-11-22T11:44:39.095Z,98155.97
2022-11-22T11:47:06.099Z,98152.47
2022-11-22T11:49:35.135Z,98157.47
2022-11-22T11:52:05.944Z,98139.66
2022-11-22T11:54:42.929Z,98154.78
2022-11-22T11:57:15.140Z,98150.06
2022-11-22T11:59:47.119Z,98141.84
2022-11-22T12:02:23.930Z,98136.16
2022-11-22T12:04:59.653Z,98128.94
2022-11-22T12:08:01.078Z,98131.84
2022-11-22T12:10:43.936Z,98129.91
2022-11-22T12:13:23.012Z,98127.84
2022-11-22T12:15:58.803Z,98129.66
2022-11-22T12:18:39.259Z,98124.34
2022-11-22T12:21:22.463Z,98133.16
2022-11-22T12:24:26.584Z,98126.88
2022-11-22T12:26:53.771Z,98118.56
2022-11-22T12:29:26.585Z,98120.56
2022-11-22T12:32:02.344Z,98111.75
2022-11-22T12:34:36.655Z,98114.19
2022-11-22T12:37:12.833Z,98119.94
2022-11-22T12:39:50.983Z,98114.44
2022-11-22T12:42:28.876Z,98105.13
2022-11-22T12:45:13.546Z,98098.94
2022-11-22T12:47:50.808Z,98097.53
2022-11-22T12:50:30.450Z,98091.84
2022-11-22T12:53:12.522Z,98099.69
2022-11-22T12:55:48.218Z,98090.03
2022-11-22T12:58:24.217Z,98093.06
2022-11-22T13:01:18.178Z,98092.81
2022-11-22T13:03:56.279Z,98089.06
2022-11-22T13:06:32.140Z,98090.03
2022-11-22T13:09:07.979Z,98097.00
2022-11-22T13:11:47.439Z,98091.66
2022-11-22T13:14:21.547Z,98089.22
2022-11-22T13:16:51.573Z,98098.22
2022-11-22T13:19:26.074Z,98094.28
2022-11-22T13:22:15.707Z,98090.13
2022-11-22T13:25:08.105Z,98096.16
2022-11-22T13:27:42.684Z,98096.41
2022-11-22T13:30:21.242Z,98096.50
2022-11-22T13:32:54.639Z,98097.06
2022-11-22T13:35:31.894Z,98102.94
2022-11-22T13:38:04.261Z,98103.25
2022-11-22T13:40:34.692Z,98092.47
2022-11-22T13:43:51.939Z,98093.13
2022-11-22T13:46:58.156Z,98104.00
2022-11-22T13:49:43.662Z,98096.56
2022-11-22T13:52:45.846Z,98100.25
2022-11-22T13:55:37.466Z,98106.78
2022-11-22T13:58:53.017Z,98105.31
2022-11-22T14:01:57.015Z,98103.72
2022-11-22T14:04:44.927Z,98103.00
2022-11-22T14:07:33.390Z,98111.41
2022-11-22T14:10:03.579Z,98103.31
2022-11-22T14:12:54.718Z,98105.19
2022-11-22T14:16:01.520Z,98104.53
2022-11-22T14:18:51.170Z,98112.97
2022-11-22T14:21:46.447Z,98102.22
2022-11-22T14:24:32.654Z,98103.75
2022-11-22T14:27:15.847Z,98108.34
2022-11-22T14:30:03.919Z,98111.75
2022-11-22T14:32:48.661Z,98124.88
2022-11-22T14:35:29.292Z,98125.25
2022-11-22T14:38:32.189Z,98135.78
2022-11-22T14:41:42.558Z,98144.00
2022-11-22T14:44:17.891Z,98135.69
2022-11-22T14:46:55.325Z,98128.69
2022-11-22T14:49:36.958Z,98137.13
2022-11-22T14:52:19.571Z,98133.59
2022-11-22T14:54:55.893Z,98131.97
2022-11-22T14:57:28.173Z,98137.59
2022-11-22T15:00:18.955Z,98139.69
2022-11-22T15:03:39.377Z,98134.91
2022-11-22T15:09:10.061Z,98130.78
2022-11-22T15:09:56.906Z,98138.31
2022-11-22T15:13:06.837Z,98145.78
2022-11-22T15:59:22.210Z,98180.78
2022-11-22T16:01:56.047Z,98183.69
2022-11-22T16:04:28.611Z,98176.09
2022-11-22T16:06:58.692Z,98192.00
2022-11-22T16:09:32.083Z,98197.38
2022-11-22T16:12:00.774Z,98189.69
2022-11-22T16:14:46.116Z,98200.53
2022-11-22T16:17:28.554Z,98205.22
2022-11-22T16:20:42.412Z,98210.81
2022-11-22T16:23:24.124Z,98213.41
2022-11-22T16:25:57.440Z,98218.19
2022-11-22T16:28:32.625Z,98214.56
2022-11-22T16:31:04.121Z,98226.94
2022-11-22T16:33:33.306Z,98227.66
2022-11-22T16:36:02.049Z,98219.94
2022-11-22T16:38:29.207Z,98217.63
2022-11-22T16:40:58.535Z,98224.25
2022-11-22T16:43:32.724Z,98226.38
2022-11-22T16:45:59.819Z,98228.25
2022-11-22T16:48:32.564Z,98230.47
2022-11-22T16:51:04.689Z,98229.06
2022-11-22T16:53:41.254Z,98220.19
2022-11-22T16:56:16.724Z,98223.47
2022-11-22T16:58:44.083Z,98226.38
2022-11-22T17:01:14.110Z,98226.84
2022-11-22T17:03:42.224Z,98235.38
2022-11-22T17:06:14.446Z,98236.66
2022-11-22T17:08:41.708Z,98240.16
2022-11-22T17:11:11.103Z,98231.72
2022-11-22T17:13:37.944Z,98243.78
2022-11-22T17:16:06.331Z,98253.00
2022-11-22T17:18:33.678Z,98259.22
2022-11-22T17:21:00.601Z,98258.75
2022-11-22T17:23:34.124Z,98262.28
2022-11-22T17:26:01.566Z,98263.31
2022-11-22T17:28:28.573Z,98264.72
2022-11-22T17:30:58.441Z,98269.63
2022-11-22T17:33:25.532Z,98266.34
2022-11-22T17:35:53.307Z,98274.19
2022-11-22T17:38:20.210Z,98267.19
2022-11-22T17:40:48.380Z,98271.50
2022-11-22T17:43:15.912Z,98265.75
2022-11-22T17:45:43.550Z,98267.88
2022-11-22T17:48:12.101Z,98275.34
2022-11-22T17:50:39.682Z,98273.34
2022-11-22T17:53:06.613Z,98282.09
2022-11-22T17:55:48.316Z,98269.59
2022-11-22T17:58:22.131Z,98277.66
2022-11-22T18:00:48.967Z,98278.13
2022-11-22T18:03:15.909Z,98283.47
2022-11-22T18:05:42.715Z,98287.47
2022-11-22T18:08:12.953Z,98287.09
2022-11-22T18:10:40.105Z,98288.16
2022-11-22T18:13:20.801Z,98281.16
2022-11-22T18:15:53.961Z,98286.97
2022-11-22T18:18:54.633Z,98281.47
2022-11-22T18:21:15.661Z,98289.53
2022-11-22T18:23:44.340Z,98291.16
2022-11-22T18:29:35.193Z,98295.97
2022-11-22T18:31:52.324Z,98304.88
2022-11-22T18:34:20.123Z,98307.09
2022-11-22T18:37:04.732Z,98312.09
2022-11-22T18:39:36.075Z,98316.19
2022-11-22T18:42:04.361Z,98326.94
2022-11-22T18:44:31.167Z,98318.44
2022-11-22T18:46:59.539Z,98319.63
2022-11-22T18:49:26.689Z,98308.66
2022-11-22T18:51:54.012Z,98319.41
2022-11-22T18:54:20.972Z,98323.13
2022-11-22T18:56:48.140Z,98320.31
2022-11-22T18:59:15.458Z,98321.56
2022-11-22T19:01:42.641Z,98323.47
2022-11-22T19:04:12.717Z,98326.38
2022-11-22T19:06:39.673Z,98329.28
2022-11-22T19:09:06.679Z,98331.38
2022-11-22T19:11:33.627Z,98342.59
2022-11-22T19:14:00.528Z,98339.53
2022-11-22T19:16:27.483Z,98334.59
2022-11-22T19:18:54.734Z,98342.88
2022-11-22T19:21:25.470Z,98350.38
2022-11-22T19:23:52.715Z,98339.25
2022-11-22T19:26:21.954Z,98339.25
2022-11-22T19:28:51.301Z,98341.00
2022-11-22T19:31:20.769Z,98340.38
2022-11-22T19:33:49.021Z,98335.25
2022-11-22T19:36:19.190Z,98338.38
2022-11-22T19:38:48.931Z,98342.94
2022-11-22T19:41:18.663Z,98331.97
2022-11-22T19:43:46.721Z,98328.47
2022-11-22T19:46:14.460Z,98333.34
2022-11-22T19:48:46.938Z,98338.09
2022-11-22T19:51:15.766Z,98337.72
2022-11-22T19:53:42.695Z,98343.09
2022-11-22T19:56:15.320Z,98346.09
2022-11-22T19:58:43.221Z,98350.03
2022-11-22T20:01:12.819Z,98340.13
2022-11-22T20:03:42.749Z,98333.94
2022-11-22T20:06:12.552Z,98355.41
2022-11-22T20:08:40.747Z,98345.56
2022-11-22T20:11:10.566Z,98348.03
2022-11-22T20:13:41.356Z,98342.31
2022-11-22T20:16:12.070Z,98349.31
2022-11-22T20:18:39.238Z,98352.59
2022-11-22T20:21:08.426Z,98355.72
2022-11-22T20:23:38.978Z,98347.06
2022-11-22T20:26:11.628Z,98356.97
2022-11-22T20:28:43.001Z,98360.50
2022-11-22T20:31:13.369Z,98357.66
2022-11-22T20:33:43.036Z,98355.88
2022-11-22T20:36:13.222Z,98357.13
2022-11-22T20:38:43.012Z,98364.38
2022-11-22T20:41:13.739Z,98361.47
2022-11-22T20:43:43.048Z,98363.38
2022-11-22T20:46:12.943Z,98375.78
2022-11-22T20:48:42.445Z,98373.09
2022-11-22T20:51:12.507Z,98380.94
2022-11-22T20:53:39.414Z,98380.09
2022-11-22T20:56:07.102Z,98384.84
2022-11-22T20:58:34.031Z,98393.28
2022-11-22T21:01:08.190Z,98389.44
2022-11-22T21:03:35.903Z,98388.44
2022-11-22T21:06:03.964Z,98401.56
2022-11-22T21:08:32.374Z,98398.72
2022-11-22T21:11:04.407Z,98404.91
2022-11-22T21:13:31.936Z,98407.59
2022-11-22T21:16:15.605Z,98408.03
2022-11-22T21:18:50.707Z,98406.69
2022-11-22T21:21:17.541Z,98409.19
2022-11-22T21:23:44.411Z,98409.63
2022-11-22T21:26:11.403Z,98414.63
2022-11-22T21:28:38.991Z,98410.28
2022-11-22T21:31:08.002Z,98414.25
2022-11-22T21:33:37.161Z,98421.25
2022-11-22T21:36:06.751Z,98421.53
2022-11-22T21:38:34.449Z,98423.59
2022-11-22T21:41:24.368Z,98423.38
2022-11-22T21:43:54.632Z,98428.75
2022-11-22T21:46:22.988Z,98429.94
2022-11-22T21:48:49.746Z,98439.66
2022-11-22T21:51:16.782Z,98440.66
2022-11-22T21:53:43.556Z,98440.66
2022-11-22T21:56:10.490Z,98435.78
2022-11-22T21:58:37.286Z,98439.09
2022-11-22T22:01:08.271Z,98436.66
2022-11-22T22:03:39.777Z,98441.19
2022-11-22T22:06:07.280Z,98432.69
2022-11-22T22:08:34.285Z,98427.94
2022-11-22T22:11:01.365Z,98432.88
2022-11-22T22:13:28.208Z,98438.25
2022-11-22T22:15:56.549Z,98445.25
2022-11-22T22:18:23.645Z,98447.25
2022-11-22T22:21:01.370Z,98442.47
2022-11-22T22:23:28.959Z,98449.06
2022-11-22T22:26:00.131Z,98436.91
2022-11-22T22:28:28.288Z,98441.38
2022-11-22T22:31:07.223Z,98435.75
2022-11-22T22:33:35.209Z,98434.19
2022-11-22T22:36:04.738Z,98435.63
2022-11-22T22:38:32.616Z,98440.22
2022-11-22T22:41:02.313Z,98439.97
2022-11-22T22:43:32.052Z,98439.91
2022-11-22T22:46:06.407Z,98442.44
2022-11-22T22:48:34.743Z,98436.44
2022-11-22T22:51:07.998Z,98445.94
2022-11-22T22:53:35.745Z,98446.31
2022-11-22T22:56:03.149Z,98440.13
2022-11-22T22:58:30.354Z,98447.16
2022-11-22T23:01:05.361Z,98443.41
2022-11-22T23:03:32.370Z,98433.53
2022-11-22T23:05:59.649Z,98436.66
2022-11-22T23:08:27.822Z,98448.47
2022-11-22T23:10:54.843Z,98448.69
2022-11-22T23:13:21.646Z,98459.00
2022-11-22T23:15:58.198Z,98469.28
2022-11-22T23:18:25.677Z,98460.19
2022-11-22T23:20:52.633Z,98461.47
2022-11-22T23:23:19.662Z,98459.44
2022-11-22T23:25:47.823Z,98467.28
2022-11-22T23:28:14.895Z,98465.00
2022-11-22T23:30:41.835Z,98462.53
2022-11-22T23:33:08.679Z,98461.53
2022-11-22T23:35:35.972Z,98463.16
2022-11-22T23:38:03.520Z,98469.38
2022-11-22T23:40:30.523Z,98468.50
2022-11-22T23:42:58.895Z,98472.63
2022-11-22T23:45:25.891Z,98465.81
2022-11-22T23:47:53.301Z,98463.16
2022-11-22T23:50:20.284Z,98466.91
2022-11-22T23:52:47.362Z,98473.31
2022-11-22T23:55:14.673Z,98473.38
2022-11-22T23:57:41.453Z,98465.19
